sensor_id;sensor_type;location;lat;lon;timestamp;pressure;altitude;pressure_sealevel;temperature;humidity
24788;BME280;12883;52.662;5.196;2023-02-08T00:00:30;104033.47;;;0.91;100.00
24788;BME280;12883;52.662;5.196;2023-02-08T00:02:55;104044.91;;;0.88;100.00
24788;BME280;12883;52.662;5.196;2023-02-08T00:05:21;104049.16;;;0.91;100.00
24788;BME280;12883;52.662;5.196;2023-02-08T00:07:46;104030.06;;;0.89;100.00
24788;BME280;12883;52.662;5.196;2023-02-08T00:10:11;104033.47;;;0.91;100.00
24788;BME280;12883;52.662;5.196;2023-02-08T00:12:37;104029.81;;;0.95;100.00
24788;BME280;12883;52.662;5.196;2023-02-08T00:15:03;104023.25;;;0.85;100.00
24788;BME280;12883;52.662;5.196;2023-02-08T00:17:29;104020.75;;;0.82;100.00
24788;BME280;12883;52.662;5.196;2023-02-08T00:19:55;104018.44;;;0.74;100.00
24788;BME280;12883;52.662;5.196;2023-02-08T00:22:20;103994.28;;;0.68;100.00
24788;BME280;12883;52.662;5.196;2023-02-08T00:24:45;104019.81;;;0.83;100.00
24788;BME280;12883;52.662;5.196;2023-02-08T00:27:11;104016.78;;;0.72;100.00
24788;BME280;12883;52.662;5.196;2023-02-08T00:29:36;104025.34;;;0.75;100.00
24788;BME280;12883;52.662;5.196;2023-02-08T00:32:02;104018.59;;;0.70;100.00
24788;BME280;12883;52.662;5.196;2023-02-08T00:34:28;104014.72;;;0.80;100.00
24788;BME280;12883;52.662;5.196;2023-02-08T00:36:53;103922.88;;;0.23;100.00
24788;BME280;12883;52.662;5.196;2023-02-08T00:39:19;104013.72;;;0.84;100.00
24788;BME280;12883;52.662;5.196;2023-02-08T00:41:45;104023.66;;;0.74;100.00
24788;BME280;12883;52.662;5.196;2023-02-08T00:44:11;104020.41;;;0.68;100.00
24788;BME280;12883;52.662;5.196;2023-02-08T00:46:36;104019.41;;;0.72;100.00
24788;BME280;12883;52.662;5.196;2023-02-08T00:49:02;104015.09;;;0.71;100.00
24788;BME280;12883;52.662;5.196;2023-02-08T00:51:28;104011.78;;;0.66;100.00
24788;BME280;12883;52.662;5.196;2023-02-08T00:53:53;104012.56;;;0.68;100.00
24788;BME280;12883;52.662;5.196;2023-02-08T00:56:18;104011.56;;;0.72;100.00
24788;BME280;12883;52.662;5.196;2023-02-08T00:58:44;103969.09;;;0.44;100.00
24788;BME280;12883;52.662;5.196;2023-02-08T01:01:10;103999.13;;;0.55;100.00
24788;BME280;12883;52.662;5.196;2023-02-08T01:03:39;104019.94;;;0.80;100.00
24788;BME280;12883;52.662;5.196;2023-02-08T01:06:09;104023.66;;;0.74;100.00
24788;BME280;12883;52.662;5.196;2023-02-08T01:08:35;104025.22;;;0.78;100.00
24788;BME280;12883;52.662;5.196;2023-02-08T01:11:06;104013.47;;;0.67;100.00
24788;BME280;12883;52.662;5.196;2023-02-08T01:13:32;104021.66;;;0.81;100.00
24788;BME280;12883;52.662;5.196;2023-02-08T01:16:11;104022.63;;;0.78;100.00
24788;BME280;12883;52.662;5.196;2023-02-08T01:18:38;104027.31;;;0.69;100.00
24788;BME280;12883;52.662;5.196;2023-02-08T01:21:07;104017.56;;;0.74;100.00
24788;BME280;12883;52.662;5.196;2023-02-08T01:23:32;104014.78;;;0.78;100.00
24788;BME280;12883;52.662;5.196;2023-02-08T01:25:58;104012.28;;;0.75;100.00
24788;BME280;12883;52.662;5.196;2023-02-08T01:28:23;104011.44;;;0.75;100.00
24788;BME280;12883;52.662;5.196;2023-02-08T01:30:48;104010.63;;;0.73;100.00
24788;BME280;12883;52.662;5.196;2023-02-08T01:33:14;104006.31;;;0.72;100.00
24788;BME280;12883;52.662;5.196;2023-02-08T01:35:39;104009.16;;;0.66;100.00
24788;BME280;12883;52.662;5.196;2023-02-08T01:38:04;104009.13;;;0.67;100.00
24788;BME280;12883;52.662;5.196;2023-02-08T01:40:30;104012.13;;;0.80;100.00
24788;BME280;12883;52.662;5.196;2023-02-08T01:42:55;104009.44;;;0.81;100.00
24788;BME280;12883;52.662;5.196;2023-02-08T01:45:24;103993.13;;;0.75;100.00
24788;BME280;12883;52.662;5.196;2023-02-08T01:47:57;104007.66;;;0.82;100.00
24788;BME280;12883;52.662;5.196;2023-02-08T01:50:30;104003.91;;;0.89;100.00
24788;BME280;12883;52.662;5.196;2023-02-08T01:52:58;103947.78;;;0.54;100.00
24788;BME280;12883;52.662;5.196;2023-02-08T01:55:30;103997.66;;;0.93;100.00
24788;BME280;12883;52.662;5.196;2023-02-08T01:57:59;103997.66;;;0.93;100.00
24788;BME280;12883;52.662;5.196;2023-02-08T02:00:25;103991.91;;;0.85;100.00
24788;BME280;12883;52.662;5.196;2023-02-08T02:02:52;104019.72;;;0.86;100.00
24788;BME280;12883;52.662;5.196;2023-02-08T02:05:21;103984.38;;;0.76;100.00
24788;BME280;12883;52.662;5.196;2023-02-08T02:07:48;103972.13;;;0.55;100.00
24788;BME280;12883;52.662;5.196;2023-02-08T02:10:20;103995.53;;;0.81;100.00
24788;BME280;12883;52.662;5.196;2023-02-08T02:12:48;103988.03;;;0.72;100.00
24788;BME280;12883;52.662;5.196;2023-02-08T02:15:14;103990.88;;;0.66;100.00
24788;BME280;12883;52.662;5.196;2023-02-08T02:17:40;103985.66;;;0.66;100.00
24788;BME280;12883;52.662;5.196;2023-02-08T02:28:20;103988.09;;;0.70;100.00
24788;BME280;12883;52.662;5.196;2023-02-08T02:33:46;103990.75;;;0.69;100.00
24788;BME280;12883;52.662;5.196;2023-02-08T02:39:38;103979.19;;;0.53;100.00
24788;BME280;12883;52.662;5.196;2023-02-08T02:45:15;103976.94;;;0.65;100.00
24788;BME280;12883;52.662;5.196;2023-02-08T02:47:53;103974.84;;;0.75;100.00
24788;BME280;12883;52.662;5.196;2023-02-08T02:50:36;103971.59;;;0.70;100.00
24788;BME280;12883;52.662;5.196;2023-02-08T02:56:16;103977.13;;;0.84;100.00
24788;BME280;12883;52.662;5.196;2023-02-08T02:58:44;103974.56;;;0.82;100.00
24788;BME280;12883;52.662;5.196;2023-02-08T03:01:10;103922.63;;;0.52;100.00
24788;BME280;12883;52.662;5.196;2023-02-08T03:03:35;103973.16;;;0.74;100.00
24788;BME280;12883;52.662;5.196;2023-02-08T03:06:04;103976.50;;;0.77;100.00
24788;BME280;12883;52.662;5.196;2023-02-08T03:11:17;103962.09;;;0.67;100.00
24788;BME280;12883;52.662;5.196;2023-02-08T03:14:09;103942.53;;;0.56;100.00
24788;BME280;12883;52.662;5.196;2023-02-08T03:19:58;103961.59;;;0.79;100.00
24788;BME280;12883;52.662;5.196;2023-02-08T03:25:00;103960.41;;;0.88;100.00
24788;BME280;12883;52.662;5.196;2023-02-08T03:27:32;103958.97;;;1.02;100.00
24788;BME280;12883;52.662;5.196;2023-02-08T03:30:14;103970.44;;;0.98;100.00
24788;BME280;12883;52.662;5.196;2023-02-08T03:32:51;103964.44;;;1.18;100.00
24788;BME280;12883;52.662;5.196;2023-02-08T03:35:29;103962.84;;;1.14;100.00
24788;BME280;12883;52.662;5.196;2023-02-08T03:38:24;103965.59;;;1.11;100.00
24788;BME280;12883;52.662;5.196;2023-02-08T03:40:53;103962.72;;;1.17;100.00
24788;BME280;12883;52.662;5.196;2023-02-08T03:43:34;103945.53;;;0.90;100.00
24788;BME280;12883;52.662;5.196;2023-02-08T03:46:21;103965.03;;;1.03;100.00
24788;BME280;12883;52.662;5.196;2023-02-08T03:48:55;103965.03;;;1.03;100.00
24788;BME280;12883;52.662;5.196;2023-02-08T03:51:23;103949.59;;;0.97;100.00
24788;BME280;12883;52.662;5.196;2023-02-08T03:53:52;103965.94;;;1.02;100.00
24788;BME280;12883;52.662;5.196;2023-02-08T03:56:32;103960.47;;;1.08;100.00
24788;BME280;12883;52.662;5.196;2023-02-08T03:59:06;103961.38;;;1.07;100.00
24788;BME280;12883;52.662;5.196;2023-02-08T04:02:00;103960.78;;;1.00;100.00
24788;BME280;12883;52.662;5.196;2023-02-08T04:04:30;103961.44;;;1.05;100.00
24788;BME280;12883;52.662;5.196;2023-02-08T04:06:57;103959.75;;;1.04;100.00
24788;BME280;12883;52.662;5.196;2023-02-08T04:09:22;103959.78;;;1.03;100.00
24788;BME280;12883;52.662;5.196;2023-02-08T04:11:48;103958.00;;;1.05;100.00
24788;BME280;12883;52.662;5.196;2023-02-08T04:14:13;103956.44;;;0.99;100.00
24788;BME280;12883;52.662;5.196;2023-02-08T04:16:39;103945.03;;;1.02;100.00
24788;BME280;12883;52.662;5.196;2023-02-08T04:19:04;103945.03;;;1.02;100.00
24788;BME280;12883;52.662;5.196;2023-02-08T04:21:29;103941.78;;;0.97;100.00
24788;BME280;12883;52.662;5.196;2023-02-08T04:23:55;103944.44;;;0.95;100.00
24788;BME280;12883;52.662;5.196;2023-02-08T04:26:20;103945.16;;;0.99;100.00
24788;BME280;12883;52.662;5.196;2023-02-08T04:28:45;103934.94;;;0.93;100.00
24788;BME280;12883;52.662;5.196;2023-02-08T04:31:11;103931.19;;;1.00;100.00
24788;BME280;12883;52.662;5.196;2023-02-08T04:33:36;103930.50;;;0.95;100.00
24788;BME280;12883;52.662;5.196;2023-02-08T04:36:01;103931.41;;;0.94;100.00
24788;BME280;12883;52.662;5.196;2023-02-08T04:38:27;103930.09;;;0.84;100.00
24788;BME280;12883;52.662;5.196;2023-02-08T04:40:52;103932.47;;;0.90;100.00
24788;BME280;12883;52.662;5.196;2023-02-08T04:43:17;103933.25;;;0.92;100.00
24788;BME280;12883;52.662;5.196;2023-02-08T04:45:43;103927.25;;;0.90;100.00
24788;BME280;12883;52.662;5.196;2023-02-08T04:48:08;103939.50;;;0.88;100.00
24788;BME280;12883;52.662;5.196;2023-02-08T04:50:34;103945.34;;;0.94;100.00
24788;BME280;12883;52.662;5.196;2023-02-08T04:52:59;103944.47;;;0.94;100.00
24788;BME280;12883;52.662;5.196;2023-02-08T04:55:24;103944.81;;;0.86;100.00
24788;BME280;12883;52.662;5.196;2023-02-08T04:57:50;103953.59;;;0.84;100.00
24788;BME280;12883;52.662;5.196;2023-02-08T05:00:15;103958.19;;;0.77;100.00
24788;BME280;12883;52.662;5.196;2023-02-08T05:02:41;103941.00;;;0.72;100.00
24788;BME280;12883;52.662;5.196;2023-02-08T05:05:07;103906.28;;;0.47;100.00
24788;BME280;12883;52.662;5.196;2023-02-08T05:07:32;103937.03;;;0.62;100.00
24788;BME280;12883;52.662;5.196;2023-02-08T05:09:58;103937.03;;;0.62;100.00
24788;BME280;12883;52.662;5.196;2023-02-08T05:12:23;103937.41;;;0.53;100.00
24788;BME280;12883;52.662;5.196;2023-02-08T05:14:48;103931.06;;;0.58;100.00
24788;BME280;12883;52.662;5.196;2023-02-08T05:17:14;103926.84;;;0.56;100.00
24788;BME280;12883;52.662;5.196;2023-02-08T05:19:39;103929.22;;;0.39;100.00
24788;BME280;12883;52.662;5.196;2023-02-08T05:22:05;103928.03;;;0.47;100.00
24788;BME280;12883;52.662;5.196;2023-02-08T05:24:30;103922.81;;;0.47;100.00
24788;BME280;12883;52.662;5.196;2023-02-08T05:26:55;103935.81;;;0.49;100.00
24788;BME280;12883;52.662;5.196;2023-02-08T05:29:21;103936.06;;;0.43;100.00
24788;BME280;12883;52.662;5.196;2023-02-08T05:31:46;103939.28;;;0.49;100.00
24788;BME280;12883;52.662;5.196;2023-02-08T05:34:11;103943.56;;;0.50;100.00
24788;BME280;12883;52.662;5.196;2023-02-08T05:36:37;103935.91;;;0.46;100.00
24788;BME280;12883;52.662;5.196;2023-02-08T05:39:03;103930.94;;;0.40;100.00
24788;BME280;12883;52.662;5.196;2023-02-08T05:41:29;103934.56;;;0.36;100.00
24788;BME280;12883;52.662;5.196;2023-02-08T05:43:54;103930.50;;;0.29;100.00
24788;BME280;12883;52.662;5.196;2023-02-08T05:46:20;103932.25;;;0.28;100.00
24788;BME280;12883;52.662;5.196;2023-02-08T05:48:45;103894.16;;;0.23;100.00
24788;BME280;12883;52.662;5.196;2023-02-08T05:51:10;103919.19;;;0.28;100.00
24788;BME280;12883;52.662;5.196;2023-02-08T05:53:36;103859.56;;;-0.05;100.00
24788;BME280;12883;52.662;5.196;2023-02-08T05:56:01;103922.66;;;0.29;100.00
24788;BME280;12883;52.662;5.196;2023-02-08T05:58:27;103923.09;;;0.40;100.00
24788;BME280;12883;52.662;5.196;2023-02-08T06:00:52;103921.41;;;0.39;100.00
24788;BME280;12883;52.662;5.196;2023-02-08T06:03:18;103922.19;;;0.41;100.00
24788;BME280;12883;52.662;5.196;2023-02-08T06:05:43;103927.25;;;0.45;100.00
24788;BME280;12883;52.662;5.196;2023-02-08T06:08:09;103929.44;;;0.33;100.00
24788;BME280;12883;52.662;5.196;2023-02-08T06:10:34;103896.78;;;0.23;100.00
24788;BME280;12883;52.662;5.196;2023-02-08T06:13:00;103909.38;;;0.35;100.00
24788;BME280;12883;52.662;5.196;2023-02-08T06:15:26;103914.00;;;0.27;100.00
24788;BME280;12883;52.662;5.196;2023-02-08T06:17:52;103910.03;;;0.40;100.00
24788;BME280;12883;52.662;5.196;2023-02-08T06:20:18;103915.03;;;0.46;100.00
24788;BME280;12883;52.662;5.196;2023-02-08T06:22:43;103906.78;;;0.56;100.00
24788;BME280;12883;52.662;5.196;2023-02-08T06:25:09;103909.81;;;0.46;100.00
24788;BME280;12883;52.662;5.196;2023-02-08T06:27:34;103904.31;;;0.53;100.00
24788;BME280;12883;52.662;5.196;2023-02-08T06:30:00;103893.78;;;0.55;100.00
24788;BME280;12883;52.662;5.196;2023-02-08T06:32:25;103904.47;;;0.70;100.00
24788;BME280;12883;52.662;5.196;2023-02-08T06:34:50;103906.28;;;0.70;100.00
24788;BME280;12883;52.662;5.196;2023-02-08T06:37:17;103838.25;;;0.28;100.00
24788;BME280;12883;52.662;5.196;2023-02-08T06:39:42;103907.47;;;0.83;100.00
24788;BME280;12883;52.662;5.196;2023-02-08T06:42:08;103915.06;;;0.89;100.00
24788;BME280;12883;52.662;5.196;2023-02-08T06:44:33;103918.72;;;0.85;100.00
24788;BME280;12883;52.662;5.196;2023-02-08T06:46:58;103907.13;;;0.92;100.00
24788;BME280;12883;52.662;5.196;2023-02-08T06:49:24;103906.63;;;0.82;100.00
24788;BME280;12883;52.662;5.196;2023-02-08T06:51:49;103911.81;;;0.84;100.00
24788;BME280;12883;52.662;5.196;2023-02-08T06:54:15;103905.19;;;0.97;100.00
24788;BME280;12883;52.662;5.196;2023-02-08T06:56:40;103855.81;;;0.68;100.00
24788;BME280;12883;52.662;5.196;2023-02-08T06:59:06;103904.97;;;1.01;100.00
24788;BME280;12883;52.662;5.196;2023-02-08T07:01:31;103909.47;;;0.98;100.00
24788;BME280;12883;52.662;5.196;2023-02-08T07:03:56;103809.06;;;0.40;100.00
24788;BME280;12883;52.662;5.196;2023-02-08T07:06:22;103919.69;;;1.04;100.00
24788;BME280;12883;52.662;5.196;2023-02-08T07:08:47;103917.28;;;1.19;100.00
24788;BME280;12883;52.662;5.196;2023-02-08T07:11:15;103904.94;;;1.23;100.00
24788;BME280;12883;52.662;5.196;2023-02-08T07:13:41;103931.91;;;1.25;100.00
24788;BME280;12883;52.662;5.196;2023-02-08T07:16:08;103834.97;;;0.88;100.00
24788;BME280;12883;52.662;5.196;2023-02-08T07:18:34;103922.81;;;1.33;100.00
24788;BME280;12883;52.662;5.196;2023-02-08T07:20:59;103921.72;;;1.39;100.00
24788;BME280;12883;52.662;5.196;2023-02-08T07:23:25;103916.00;;;1.29;100.00
24788;BME280;12883;52.662;5.196;2023-02-08T07:26:02;103913.31;;;1.31;100.00
24788;BME280;12883;52.662;5.196;2023-02-08T07:28:28;103906.03;;;1.39;100.00
24788;BME280;12883;52.662;5.196;2023-02-08T07:30:54;103878.78;;;1.23;100.00
24788;BME280;12883;52.662;5.196;2023-02-08T07:33:19;103896.91;;;1.47;100.00
24788;BME280;12883;52.662;5.196;2023-02-08T07:35:45;103894.69;;;1.38;100.00
24788;BME280;12883;52.662;5.196;2023-02-08T07:38:10;103892.91;;;1.59;100.00
24788;BME280;12883;52.662;5.196;2023-02-08T07:40:36;103891.16;;;1.59;100.00
24788;BME280;12883;52.662;5.196;2023-02-08T07:43:01;103892.03;;;1.60;100.00
24788;BME280;12883;52.662;5.196;2023-02-08T07:45:27;103890.00;;;1.66;100.00
24788;BME280;12883;52.662;5.196;2023-02-08T07:47:52;103891.84;;;1.64;100.00
24788;BME280;12883;52.662;5.196;2023-02-08T07:50:17;103884.75;;;1.66;100.00
24788;BME280;12883;52.662;5.196;2023-02-08T07:52:43;103891.41;;;1.73;100.00
24788;BME280;12883;52.662;5.196;2023-02-08T07:55:11;103890.66;;;1.71;100.00
24788;BME280;12883;52.662;5.196;2023-02-08T07:57:42;103895.41;;;1.82;100.00
24788;BME280;12883;52.662;5.196;2023-02-08T08:00:08;103890.69;;;1.90;100.00
24788;BME280;12883;52.662;5.196;2023-02-08T08:02:33;103889.34;;;2.00;100.00
24788;BME280;12883;52.662;5.196;2023-02-08T08:04:58;103884.00;;;2.03;100.00
24788;BME280;12883;52.662;5.196;2023-02-08T08:07:24;103887.59;;;2.00;100.00
24788;BME280;12883;52.662;5.196;2023-02-08T08:09:49;103886.72;;;2.00;100.00
24788;BME280;12883;52.662;5.196;2023-02-08T08:12:14;103885.41;;;2.10;100.00
24788;BME280;12883;52.662;5.196;2023-02-08T08:14:40;103883.44;;;2.15;100.00
24788;BME280;12883;52.662;5.196;2023-02-08T08:17:05;103871.81;;;2.20;100.00
24788;BME280;12883;52.662;5.196;2023-02-08T08:19:30;103867.22;;;2.25;100.00
24788;BME280;12883;52.662;5.196;2023-02-08T08:21:56;103869.91;;;2.24;100.00
24788;BME280;12883;52.662;5.196;2023-02-08T08:24:21;103867.28;;;2.24;100.00
24788;BME280;12883;52.662;5.196;2023-02-08T08:26:46;103859.06;;;2.31;100.00
24788;BME280;12883;52.662;5.196;2023-02-08T08:29:12;103852.63;;;2.38;100.00
24788;BME280;12883;52.662;5.196;2023-02-08T08:31:38;103842.44;;;2.32;100.00
24788;BME280;12883;52.662;5.196;2023-02-08T08:34:03;103857.50;;;2.46;100.00
24788;BME280;12883;52.662;5.196;2023-02-08T08:36:29;103865.84;;;2.54;100.00
24788;BME280;12883;52.662;5.196;2023-02-08T08:38:54;103859.22;;;2.47;100.00
24788;BME280;12883;52.662;5.196;2023-02-08T08:41:20;103851.53;;;2.61;100.00
24788;BME280;12883;52.662;5.196;2023-02-08T08:43:47;103859.56;;;2.58;100.00
24788;BME280;12883;52.662;5.196;2023-02-08T08:46:13;103797.22;;;2.29;100.00
24788;BME280;12883;52.662;5.196;2023-02-08T08:48:40;103851.97;;;2.52;100.00
24788;BME280;12883;52.662;5.196;2023-02-08T08:51:06;103866.97;;;2.67;100.00
24788;BME280;12883;52.662;5.196;2023-02-08T08:53:31;103874.47;;;2.74;100.00
24788;BME280;12883;52.662;5.196;2023-02-08T08:55:57;103868.25;;;2.77;100.00
24788;BME280;12883;52.662;5.196;2023-02-08T08:58:22;103873.50;;;2.77;100.00
24788;BME280;12883;52.662;5.196;2023-02-08T09:00:47;103873.97;;;2.85;100.00
24788;BME280;12883;52.662;5.196;2023-02-08T09:03:13;103880.59;;;2.92;100.00
24788;BME280;12883;52.662;5.196;2023-02-08T09:05:38;103883.13;;;2.93;100.00
24788;BME280;12883;52.662;5.196;2023-02-08T09:08:04;103889.72;;;3.02;100.00
24788;BME280;12883;52.662;5.196;2023-02-08T09:10:29;103883.41;;;3.06;100.00
24788;BME280;12883;52.662;5.196;2023-02-08T09:12:55;103888.47;;;3.09;100.00
24788;BME280;12883;52.662;5.196;2023-02-08T09:15:21;103890.47;;;3.04;100.00
24788;BME280;12883;52.662;5.196;2023-02-08T09:17:46;103896.22;;;3.12;100.00
24788;BME280;12883;52.662;5.196;2023-02-08T09:20:11;103890.63;;;3.18;100.00
24788;BME280;12883;52.662;5.196;2023-02-08T09:22:37;103896.97;;;3.14;100.00
24788;BME280;12883;52.662;5.196;2023-02-08T09:25:02;103895.00;;;3.19;100.00
24788;BME280;12883;52.662;5.196;2023-02-08T09:27:28;103890.81;;;3.15;100.00
24788;BME280;12883;52.662;5.196;2023-02-08T09:29:54;103894.59;;;3.26;100.00
24788;BME280;12883;52.662;5.196;2023-02-08T09:32:19;103894.28;;;3.32;100.00
24788;BME280;12883;52.662;5.196;2023-02-08T09:34:46;103834.63;;;3.02;100.00
24788;BME280;12883;52.662;5.196;2023-02-08T09:37:11;103889.75;;;3.36;100.00
24788;BME280;12883;52.662;5.196;2023-02-08T09:39:37;103902.84;;;3.36;100.00
24788;BME280;12883;52.662;5.196;2023-02-08T09:42:13;103907.88;;;3.40;100.00
24788;BME280;12883;52.662;5.196;2023-02-08T09:48:02;103907.31;;;3.51;100.00
24788;BME280;12883;52.662;5.196;2023-02-08T09:50:33;103915.06;;;3.54;100.00
24788;BME280;12883;52.662;5.196;2023-02-08T09:53:14;103918.75;;;3.50;100.00
24788;BME280;12883;52.662;5.196;2023-02-08T09:55:47;103914.91;;;3.57;100.00
24788;BME280;12883;52.662;5.196;2023-02-08T09:58:36;103909.66;;;3.57;100.00
24788;BME280;12883;52.662;5.196;2023-02-08T10:01:02;103898.47;;;3.70;100.00
24788;BME280;12883;52.662;5.196;2023-02-08T10:03:41;103875.75;;;3.52;100.00
24788;BME280;12883;52.662;5.196;2023-02-08T10:06:14;103898.78;;;3.64;100.00
24788;BME280;12883;52.662;5.196;2023-02-08T10:08:41;103903.47;;;3.75;100.00
24788;BME280;12883;52.662;5.196;2023-02-08T10:23:06;103908.84;;;3.89;100.00
24788;BME280;12883;52.662;5.196;2023-02-08T10:28:55;103902.09;;;4.00;100.00
24788;BME280;12883;52.662;5.196;2023-02-08T10:34:03;103895.91;;;4.01;100.00
24788;BME280;12883;52.662;5.196;2023-02-08T10:36:37;103898.28;;;4.06;100.00
24788;BME280;12883;52.662;5.196;2023-02-08T10:39:13;103899.03;;;4.08;100.00
24788;BME280;12883;52.662;5.196;2023-02-08T10:41:39;103895.94;;;4.17;100.00
24788;BME280;12883;52.662;5.196;2023-02-08T10:46:53;103880.25;;;4.15;100.00
24788;BME280;12883;52.662;5.196;2023-02-08T10:49:34;103869.75;;;4.15;100.00
24788;BME280;12883;52.662;5.196;2023-02-08T10:52:03;103877.22;;;4.23;100.00
24788;BME280;12883;52.662;5.196;2023-02-08T10:54:30;103884.53;;;4.33;100.00
24788;BME280;12883;52.662;5.196;2023-02-08T10:57:13;103876.66;;;4.33;100.00
24788;BME280;12883;52.662;5.196;2023-02-08T10:59:46;103860.34;;;4.42;100.00
24788;BME280;12883;52.662;5.196;2023-02-08T11:02:34;103836.53;;;4.30;100.00
24788;BME280;12883;52.662;5.196;2023-02-08T11:05:16;103854.50;;;4.37;100.00
24788;BME280;12883;52.662;5.196;2023-02-08T11:07:42;103841.53;;;4.34;100.00
24788;BME280;12883;52.662;5.196;2023-02-08T11:12:53;103847.56;;;4.52;100.00
24788;BME280;12883;52.662;5.196;2023-02-08T11:15:26;103847.81;;;4.47;100.00
24788;BME280;12883;52.662;5.196;2023-02-08T11:17:56;103809.91;;;4.20;100.00
24788;BME280;12883;52.662;5.196;2023-02-08T11:20:28;103821.19;;;4.38;100.00
24788;BME280;12883;52.662;5.196;2023-02-08T11:22:56;103839.22;;;4.59;100.00
24788;BME280;12883;52.662;5.196;2023-02-08T11:25:37;103832.28;;;4.58;100.00
24788;BME280;12883;52.662;5.196;2023-02-08T11:28:04;103836.91;;;4.68;100.00
24788;BME280;12883;52.662;5.196;2023-02-08T11:31:00;103837.94;;;4.66;100.00
24788;BME280;12883;52.662;5.196;2023-02-08T11:33:28;103833.97;;;4.59;100.00
24788;BME280;12883;52.662;5.196;2023-02-08T11:36:00;103837.88;;;4.67;100.00
24788;BME280;12883;52.662;5.196;2023-02-08T11:38:26;103826.41;;;4.68;100.00
24788;BME280;12883;52.662;5.196;2023-02-08T11:40:55;103829.81;;;4.70;100.00
24788;BME280;12883;52.662;5.196;2023-02-08T11:43:28;103845.34;;;4.75;100.00
24788;BME280;12883;52.662;5.196;2023-02-08T11:45:55;103767.59;;;4.40;100.00
24788;BME280;12883;52.662;5.196;2023-02-08T11:48:48;103818.69;;;4.81;100.00
24788;BME280;12883;52.662;5.196;2023-02-08T11:51:27;103813.31;;;4.82;100.00
24788;BME280;12883;52.662;5.196;2023-02-08T11:53:54;103816.06;;;4.81;100.00
24788;BME280;12883;52.662;5.196;2023-02-08T11:56:29;103818.16;;;4.90;100.00
24788;BME280;12883;52.662;5.196;2023-02-08T11:58:59;103813.97;;;4.86;100.00
24788;BME280;12883;52.662;5.196;2023-02-08T12:01:37;103801.63;;;4.88;100.00
24788;BME280;12883;52.662;5.196;2023-02-08T12:04:14;103807.59;;;5.05;100.00
24788;BME280;12883;52.662;5.196;2023-02-08T12:10:01;103803.22;;;5.04;100.00
24788;BME280;12883;52.662;5.196;2023-02-08T12:18:39;103800.00;;;5.15;100.00
24788;BME280;12883;52.662;5.196;2023-02-08T12:21:27;103784.28;;;5.13;100.00
24788;BME280;12883;52.662;5.196;2023-02-08T12:24:01;103789.47;;;5.15;100.00
24788;BME280;12883;52.662;5.196;2023-02-08T12:29:07;103776.84;;;5.20;100.00
24788;BME280;12883;52.662;5.196;2023-02-08T12:34:57;103778.00;;;5.30;100.00
24788;BME280;12883;52.662;5.196;2023-02-08T12:37:54;103773.31;;;5.35;100.00
24788;BME280;12883;52.662;5.196;2023-02-08T12:53:45;103679.97;;;4.98;100.00
24788;BME280;12883;52.662;5.196;2023-02-08T12:56:18;103743.31;;;5.51;100.00
24788;BME280;12883;52.662;5.196;2023-02-08T12:58:49;103722.63;;;5.31;100.00
24788;BME280;12883;52.662;5.196;2023-02-08T13:06:45;103734.75;;;5.62;100.00
24788;BME280;12883;52.662;5.196;2023-02-08T13:12:16;103742.28;;;5.68;100.00
24788;BME280;12883;52.662;5.196;2023-02-08T13:14:50;103744.34;;;5.63;100.00
24788;BME280;12883;52.662;5.196;2023-02-08T13:17:22;103758.56;;;5.74;100.00
24788;BME280;12883;52.662;5.196;2023-02-08T13:20:06;103731.16;;;5.77;100.00
24788;BME280;12883;52.662;5.196;2023-02-08T13:22:38;103725.03;;;5.76;100.00
24788;BME280;12883;52.662;5.196;2023-02-08T13:25:14;103722.31;;;5.78;100.00
24788;BME280;12883;52.662;5.196;2023-02-08T13:27:41;103707.34;;;5.78;100.00
24788;BME280;12883;52.662;5.196;2023-02-08T13:30:19;103652.19;;;5.49;100.00
24788;BME280;12883;52.662;5.196;2023-02-08T13:32:46;103700.22;;;5.80;100.00
24788;BME280;12883;52.662;5.196;2023-02-08T13:35:28;103693.81;;;5.84;100.00
24788;BME280;12883;52.662;5.196;2023-02-08T13:38:02;103692.88;;;5.85;100.00
24788;BME280;12883;52.662;5.196;2023-02-08T13:40:33;103686.66;;;5.86;100.00
24788;BME280;12883;52.662;5.196;2023-02-08T13:43:04;103687.31;;;5.90;100.00
24788;BME280;12883;52.662;5.196;2023-02-08T13:45:36;103676.47;;;5.94;100.00
24788;BME280;12883;52.662;5.196;2023-02-08T13:48:08;103667.19;;;5.89;100.00
24788;BME280;12883;52.662;5.196;2023-02-08T13:50:52;103671.41;;;5.91;100.00
24788;BME280;12883;52.662;5.196;2023-02-08T13:56:03;103657.34;;;6.05;100.00
24788;BME280;12883;52.662;5.196;2023-02-08T14:03:35;103603.50;;;5.82;100.00
24788;BME280;12883;52.662;5.196;2023-02-08T14:06:21;103643.09;;;6.07;100.00
24788;BME280;12883;52.662;5.196;2023-02-08T14:09:04;103642.63;;;6.15;100.00
24788;BME280;12883;52.662;5.196;2023-02-08T14:11:43;103640.28;;;6.10;100.00
24788;BME280;12883;52.662;5.196;2023-02-08T14:14:22;103645.66;;;6.21;100.00
24788;BME280;12883;52.662;5.196;2023-02-08T14:17:23;103639.34;;;6.11;100.00
24788;BME280;12883;52.662;5.196;2023-02-08T14:19:57;103607.16;;;6.06;100.00
24788;BME280;12883;52.662;5.196;2023-02-08T14:22:26;103628.09;;;6.34;100.00
24788;BME280;12883;52.662;5.196;2023-02-08T14:25:03;103626.63;;;6.30;100.00
24788;BME280;12883;52.662;5.196;2023-02-08T14:27:40;103584.69;;;6.01;100.00
24788;BME280;12883;52.662;5.196;2023-02-08T14:32:40;103634.53;;;6.30;100.00
24788;BME280;12883;52.662;5.196;2023-02-08T14:37:37;103611.03;;;6.40;100.00
24788;BME280;12883;52.662;5.196;2023-02-08T14:45:34;103597.31;;;6.35;100.00
24788;BME280;12883;52.662;5.196;2023-02-08T14:48:29;103583.59;;;6.42;100.00
24788;BME280;12883;52.662;5.196;2023-02-08T14:51:15;103579.38;;;6.52;100.00